createdAt,value
2023-03-23T16:00:11.779Z,26.08
2023-03-23T16:02:39.030Z,26.25
2023-03-23T16:05:06.952Z,26.29
2023-03-23T16:07:34.402Z,27.23
2023-03-23T16:10:03.888Z,26.63
2023-03-23T16:12:31.302Z,26.96
2023-03-23T16:14:58.702Z,26.68
2023-03-23T16:17:26.767Z,26.87
2023-03-23T16:19:54.015Z,26.46
2023-03-23T16:22:21.687Z,26.19
2023-03-23T16:24:48.954Z,26.50
2023-03-23T16:27:16.396Z,26.46
2023-03-23T16:30:02.178Z,27.00
2023-03-23T16:32:31.143Z,26.68
2023-03-23T16:34:58.342Z,28.36
2023-03-23T16:37:25.627Z,27.65
2023-03-23T16:39:52.988Z,28.60
2023-03-23T16:42:20.384Z,27.03
2023-03-23T16:44:49.125Z,27.23
2023-03-23T16:47:17.335Z,29.40
2023-03-23T16:49:44.795Z,29.31
2023-03-23T16:52:12.262Z,27.43
2023-03-23T16:54:39.641Z,28.21
2023-03-23T16:57:07.291Z,27.20
2023-03-23T16:59:34.664Z,27.04
2023-03-23T17:02:04.077Z,26.72
2023-03-23T17:04:32.769Z,27.75
2023-03-23T17:07:00.641Z,27.41
2023-03-23T17:09:28.112Z,26.81
2023-03-23T17:11:55.996Z,27.08
2023-03-23T17:14:23.303Z,26.50
2023-03-23T17:16:50.592Z,27.10
2023-03-23T17:19:17.914Z,28.56
2023-03-23T17:21:45.358Z,26.66
2023-03-23T17:24:12.738Z,27.04
2023-03-23T17:26:40.077Z,28.14
2023-03-23T17:29:07.430Z,26.64
2023-03-23T17:31:35.105Z,27.14
2023-03-23T17:34:02.625Z,26.93
2023-03-23T17:36:30.009Z,26.81
2023-03-23T17:38:59.333Z,27.54
2023-03-23T17:41:29.599Z,27.18
2023-03-23T17:44:07.585Z,26.74
2023-03-23T17:46:37.916Z,28.12
2023-03-23T17:49:05.273Z,27.17
2023-03-23T17:51:32.574Z,27.13
2023-03-23T17:53:59.884Z,27.21
2023-03-23T17:56:27.340Z,27.02
2023-03-23T17:58:54.674Z,26.74
2023-03-23T18:01:22.206Z,27.33
2023-03-23T18:03:51.609Z,26.63
2023-03-23T18:06:19.672Z,27.12
2023-03-23T18:08:47.187Z,28.47
2023-03-23T18:11:14.491Z,27.17
2023-03-23T18:13:42.093Z,26.93
2023-03-23T18:16:09.651Z,27.09
2023-03-23T18:18:37.630Z,27.15
2023-03-23T18:21:08.232Z,27.09
2023-03-23T18:23:43.098Z,26.96
2023-03-23T18:26:16.937Z,27.65
2023-03-23T18:28:44.226Z,27.30
2023-03-23T18:31:13.634Z,26.89
2023-03-23T18:33:46.932Z,26.94
2023-03-23T18:36:15.620Z,26.94
2023-03-23T18:38:44.244Z,27.80
2023-03-23T18:41:12.226Z,27.25
2023-03-23T18:43:39.611Z,27.61
2023-03-23T18:46:07.716Z,27.37
2023-03-23T18:48:35.868Z,28.15
2023-03-23T18:51:03.359Z,27.28
2023-03-23T18:53:30.960Z,27.14
2023-03-23T18:56:08.880Z,27.47
2023-03-23T18:58:36.324Z,27.41
2023-03-23T19:01:08.340Z,27.71
2023-03-23T19:03:36.498Z,28.02
2023-03-23T19:06:04.806Z,27.63
2023-03-23T19:08:32.541Z,28.02
2023-03-23T19:11:01.857Z,27.56
2023-03-23T19:13:30.236Z,27.79
2023-03-23T19:15:57.614Z,27.51
2023-03-23T19:18:25.105Z,27.61
2023-03-23T19:21:13.377Z,27.48
2023-03-23T19:23:42.099Z,29.15
2023-03-23T19:26:10.314Z,28.13
2023-03-23T19:31:07.801Z,27.85
2023-03-23T19:33:35.124Z,27.53
2023-03-23T19:36:10.972Z,27.97
2023-03-23T19:38:40.767Z,28.51
2023-03-23T19:41:08.304Z,28.68
2023-03-23T19:43:37.582Z,28.21
2023-03-23T19:46:05.247Z,28.61
2023-03-23T19:48:33.764Z,28.24
2023-03-23T19:51:01.738Z,27.90
2023-03-23T19:53:29.064Z,28.47
2023-03-23T19:55:56.381Z,30.94
2023-03-23T19:58:23.744Z,28.52
2023-03-23T20:00:51.000Z,30.70
2023-03-23T20:03:18.296Z,29.25
2023-03-23T20:05:45.931Z,28.93
2023-03-23T20:08:14.827Z,29.38
2023-03-23T20:10:42.331Z,29.33
2023-03-23T20:13:11.527Z,28.75
2023-03-23T20:15:38.916Z,29.05
2023-03-23T20:18:07.539Z,29.66
2023-03-23T20:20:36.790Z,32.75
2023-03-23T20:23:04.854Z,29.58
2023-03-23T20:25:32.347Z,31.39
2023-03-23T20:28:02.224Z,29.88
2023-03-23T20:30:29.504Z,34.39
2023-03-23T20:33:00.950Z,29.96
2023-03-23T20:35:29.749Z,30.20
2023-03-23T20:37:57.818Z,30.21
2023-03-23T20:40:25.166Z,30.18
2023-03-23T20:42:54.833Z,30.48
2023-03-23T20:45:22.790Z,30.63
2023-03-23T20:47:50.123Z,30.14
2023-03-23T20:50:17.772Z,30.33
2023-03-23T20:52:45.180Z,32.19
2023-03-23T20:55:12.435Z,31.96
2023-03-23T20:57:40.580Z,30.86
2023-03-23T21:00:09.760Z,30.56
2023-03-23T21:02:37.068Z,30.60
2023-03-23T21:05:05.438Z,30.49
2023-03-23T21:07:32.733Z,31.31
2023-03-23T21:10:00.077Z,31.49
2023-03-23T21:12:27.772Z,31.16
2023-03-23T21:14:55.146Z,30.90
2023-03-23T21:17:22.501Z,31.09
2023-03-23T21:19:50.250Z,32.06
2023-03-23T21:22:19.176Z,31.13
2023-03-23T21:24:50.818Z,31.94
2023-03-23T21:27:18.172Z,32.23
2023-03-23T21:29:45.641Z,32.70
2023-03-23T21:32:12.906Z,33.33
2023-03-23T21:34:40.236Z,31.74
2023-03-23T21:37:07.512Z,31.91
2023-03-23T21:39:34.959Z,34.24
2023-03-23T21:42:04.607Z,32.90
2023-03-23T21:44:35.313Z,38.93
2023-03-23T21:47:02.853Z,33.54
2023-03-23T21:49:31.738Z,37.45
2023-03-23T21:51:59.136Z,34.91
2023-03-23T21:54:30.454Z,34.40
2023-03-23T21:56:58.962Z,38.85
2023-03-23T21:59:27.442Z,33.93
2023-03-23T22:01:55.168Z,33.48
2023-03-23T22:04:22.732Z,36.52
2023-03-23T22:06:50.020Z,35.43
2023-03-23T22:09:17.709Z,33.49
2023-03-23T22:11:45.131Z,33.05
2023-03-23T22:14:12.773Z,37.51
2023-03-23T22:16:40.151Z,40.95
2023-03-23T22:19:07.454Z,41.50
2023-03-23T22:21:34.729Z,35.76
2023-03-23T22:24:02.304Z,35.46
2023-03-23T22:26:29.986Z,36.66
2023-03-23T22:28:57.992Z,36.89
2023-03-23T22:31:27.843Z,39.69
2023-03-23T22:33:56.260Z,42.15
2023-03-23T22:36:24.656Z,40.11
2023-03-23T22:38:52.248Z,42.27
2023-03-23T22:41:21.184Z,43.42
2023-03-23T22:43:48.746Z,38.82
2023-03-23T22:46:16.176Z,39.33
2023-03-23T22:48:43.627Z,38.66
2023-03-23T22:51:11.922Z,39.25
2023-03-23T22:53:39.328Z,37.17
2023-03-23T22:56:06.849Z,40.69
2023-03-23T22:58:34.254Z,40.70
2023-03-23T23:01:02.802Z,36.22
2023-03-23T23:03:30.728Z,36.34
2023-03-23T23:05:59.014Z,35.95
2023-03-23T23:08:26.725Z,38.47
2023-03-23T23:10:56.064Z,39.82
2023-03-23T23:13:24.083Z,35.80
2023-03-23T23:15:53.011Z,34.98
2023-03-23T23:18:20.945Z,38.90
2023-03-23T23:20:49.360Z,35.71
2023-03-23T23:23:16.665Z,37.22
2023-03-23T23:25:44.326Z,35.50
2023-03-23T23:28:12.047Z,40.84
2023-03-23T23:30:39.697Z,37.73
2023-03-23T23:33:07.658Z,42.21
2023-03-23T23:35:37.226Z,35.78
2023-03-23T23:38:05.036Z,35.16
2023-03-23T23:40:35.685Z,39.15
2023-03-23T23:43:03.783Z,43.38
2023-03-23T23:45:31.977Z,42.24
2023-03-23T23:47:59.682Z,39.30
2023-03-23T23:50:27.218Z,38.95
2023-03-23T23:52:54.483Z,40.35
2023-03-23T23:55:21.939Z,42.41
2023-03-23T23:57:49.906Z,39.08
